x

Virginia Beach 64 Nm East Of Virginia Beach, Va (44014) Wave Buoy

5:50am - Sun 24th Jul 2016 All times are EDT. -4 hours from GMT.

  • Sig Wave height 3.3ft
  • Swell Direction
  • Peak Period 5s
  • Average Period 4s
  • Wind
    18mph, 20mph gusts
  • Sea Temp 81°f
  • Air Temp 81°f
  • Sea Pressure 1014.4mb
  • Virginia Beach 64 Nm East Of Virginia Beach, Va
  • Virginia Beach 64 Nm East Of Virginia Beach, Va

More Historic Weather Station data

Upgrade to MSW Pro to gain access to the past 30 days of data for over 8000 Wavebouys and Weather Stations around the globe.

Join Pro

Comparision Forecast

View Surf forecast
   
Sun 07/24 5:50am 3.5ft 5s 4s 18 20 mph 1014.4mb 81f 81f
4:50am 3.5ft 8s 4s 18 20 mph 1014.4mb 81f 81f
3:50am 3.5ft 5s 4s 16 20 mph 1014.5mb 80f 81f
2:50am 3.5ft 4s 4s 16 20 mph 1014.6mb 80f 81f
1:50am 3.5ft 5s 4s 18 22 mph 1014.5mb 80f 82f
12:50am 3.5ft 5s 4s 18 20 mph 1014.5mb 80f 82f
Sat 07/23 11:50pm 3.5ft 5s 4s 18 22 mph 1014.3mb 80f 82f
10:50pm 3.5ft 4s 4s 18 20 mph 1014.5mb 81f 82f
9:50pm 3.5ft 4s 4s 18 22 mph 1014mb 80f 82f
7:50pm 2.5ft 8s 4s 16 20 mph 1013.2mb 81f 82f
6:50pm 2.5ft 8s 4s 16 18 mph 1013mb 81f 82f
5:50pm 2.5ft 9s 4s 16 18 mph 1013.2mb 81f 82f
4:50pm 2.5ft 8s 4s 11 16 mph 1013.6mb 81f 82f
3:50pm 2.5ft 9s 4s 11 13 mph 1013.9mb 81f 82f
2:50pm 3ft 9s 4s 13
mph
1014.4mb 80f 82f
1:50pm 3.5ft 4s 4s 13 16 mph 1014.9mb 80f 81f
12:50pm 3.5ft 4s 4s 16 18 mph 1015mb 80f 81f
11:50am 3.5ft 4s  -  16 18 mph 1015mb 80f 80f
10:50am 3.5ft 5s 4s 16 18 mph 1015mb 80f 80f
9:50am 3.5ft 5s 4s 16 20 mph 1014.7mb 79f 80f
8:50am 3.5ft 5s 4s 18 20 mph 1014.9mb 80f 80f
7:50am 3.5ft 4s 4s 18 22 mph 1014.6mb 80f 80f
6:50am 3.5ft 4s 4s 18 22 mph 1014.6mb 80f 80f
5:50am 3.5ft 5s 4s 20 22 mph 1014.4mb 80f 80f
4:50am 3.5ft 4s 4s 18 22 mph 1014.2mb 80f 80f
3:50am 3.5ft 4s 4s 18 22 mph 1014.5mb 80f 81f
2:50am 3.5ft 4s 4s 20 25 mph 1014.7mb 80f 81f
1:50am 3.5ft 9s 4s 18 22 mph 1015.1mb 80f 82f
12:50am 3.5ft 8s 4s 18 22 mph 1015mb 80f 82f
Fri 07/22 11:50pm 3.5ft 4s 4s 18 20 mph 1015.1mb 80f 81f
10:50pm 3.5ft 4s 4s 18 22 mph 1015mb 80f 82f
9:50pm 3ft 4s 4s 18 20 mph 1015mb 81f 82f
8:50pm 3ft 9s 4s 18 20 mph 1014.6mb 81f 82f
7:50pm 3ft 4s 4s 18 22 mph 1014.7mb 81f 82f
6:50pm 3ft 9s 4s 18 22 mph 1015mb 82f 82f
5:50pm 3ft 8s 4s 18 22 mph 1015.5mb 82f 82f
4:50pm 3ft 9s 4s 18 20 mph 1016.3mb 82f 81f
3:50pm 2.5ft 8s 4s 18 20 mph 1016.7mb 82f 81f
2:50pm 2.5ft 8s 5s 16 18 mph 1017.5mb 82f 81f
1:50pm 2.5ft 9s 5s 13 16 mph 1018.2mb 82f 81f
12:50pm 2.5ft 9s 5s 11
mph
1018.5mb 82f 81f
11:50am 2.5ft 8s 5s 9 11 mph 1018.2mb 81f 81f
10:50am 2.5ft 9s 6s 9 11 mph 1018.6mb 81f 81f
9:50am 3ft 8s 5s 11
mph
1018.9mb 81f 81f
8:50am 2.5ft 8s 5s 11 13 mph 1019mb 80f 81f
7:50am 2.5ft 9s 6s 11 13 mph 1018.8mb 81f 81f
6:50am 2.5ft 9s 6s 11 13 mph 1018.9mb 81f 80f
5:50am 3ft 8s 7s 9 11 mph 1018.4mb 81f 80f
4:50am 2.5ft 9s 6s 9 11 mph 1018.4mb 81f 79f
3:50am 2.5ft 8s 6s 9 11 mph 1018.6mb 81f 80f
2:50am 3ft 9s 6s 9
mph
1018.7mb 81f 80f
1:50am 2.5ft 8s 6s 9 11 mph 1019.5mb 81f 80f
12:50am 3ft 9s 7s 11 13 mph 1019.8mb 82f 80f
Thu 07/21 11:50pm 2.5ft 9s 6s 9 11 mph 1020mb 81f 80f
10:50pm 2.5ft 8s 6s 9 11 mph 1020.3mb 81f 80f
9:50pm 3ft 9s 7s 7 9 mph 1020mb 81f 80f
8:50pm 3ft 9s 7s 7 9 mph 1019.6mb 82f 80f
7:50pm 3.5ft 8s 7s 4 7 mph 1020mb 82f 80f
6:50pm 3ft 8s 7s 4 7 mph 1019.4mb 82f 81f
5:50pm 3ft 9s 7s 4 7 mph 1019.7mb 82f 81f
4:50pm 3ft 8s 7s 7 9 mph 1020.1mb 82f 80f
3:50pm 3ft 8s 6s 7
mph
1020.7mb 82f 80f
2:50pm 3ft 9s 6s 4 7 mph 1021.4mb 82f 80f
1:50pm 3ft 9s 6s 4 7 mph 1021.3mb 82f 79f
12:50pm 3ft 9s 6s 4 7 mph 1021.3mb 82f 79f
11:50am 2.5ft 8s 6s 2 4 mph 1021.8mb 82f 79f
10:50am 2.5ft 9s 6s 4 7 mph 1021.7mb 81f 79f
9:50am 2.5ft 8s 6s 7 9 mph 1021.5mb 81f 79f
8:50am 2.5ft 9s 6s 7
mph
1021.2mb 81f 79f
7:50am 2.5ft 9s 6s 4 7 mph 1021mb 80f 79f
6:50am 2.5ft 10s 6s 2 4 mph 1020.7mb 80f 79f
5:50am 2.5ft 8s 6s 4
mph
1020.2mb 81f 78f
4:50am 2.5ft 8s 6s 4 7 mph 1020.4mb 81f 78f
3:50am 2.5ft 9s 6s 4 7 mph 1020.4mb 81f 79f
2:50am 2.5ft 8s 6s 4 7 mph 1020.5mb 81f 79f
1:50am 2.5ft 9s 6s 4 7 mph 1020.7mb 81f 79f
12:50am 2.5ft 8s 5s 4 7 mph 1021.1mb 81f 79f
Wed 07/20 11:50pm 2.5ft 8s 5s 7
mph
1021.3mb 81f 79f
10:50pm 2.5ft 8s 5s 4 7 mph 1021.2mb 81f 79f
9:50pm 2.5ft 8s 5s 7 9 mph 1020.9mb 81f 79f
7:50pm 2.5ft 8s 4s 4
mph
1020mb 81f 80f
6:50pm 2.5ft 9s 4s 2 4 mph 1019.9mb 82f 80f
5:50pm 2.5ft 8s 4s 2 4 mph 1019.8mb 82f 80f
4:50pm 2.5ft 8s 4s 4
mph
1020mb 81f 80f
3:50pm 2ft 8s 4s 7 9 mph 1020.1mb 81f 79f
2:50pm 2.5ft 9s 4s 11 13 mph 1020.5mb 81f 79f
1:50pm 2.5ft 8s 4s 13 16 mph 1020.8mb 81f 80f
12:50pm 2ft 9s 4s 13 16 mph 1021mb 81f 79f
11:50am 2ft 5s 5s 13 16 mph 1021.1mb 81f 79f